sensor_id;sensor_type;location;lat;lon;timestamp;temperature;humidity
18339;DHT22;9295;44.484;11.240;2022-07-06T00:02:26;24.80;99.90
18339;DHT22;9295;44.484;11.240;2022-07-06T00:04:54;24.80;99.90
18339;DHT22;9295;44.484;11.240;2022-07-06T00:07:25;24.80;99.90
18339;DHT22;9295;44.484;11.240;2022-07-06T00:09:53;24.90;99.90
18339;DHT22;9295;44.484;11.240;2022-07-06T00:12:22;24.90;99.90
18339;DHT22;9295;44.484;11.240;2022-07-06T00:14:50;25.00;99.90
18339;DHT22;9295;44.484;11.240;2022-07-06T00:17:19;25.10;99.90
18339;DHT22;9295;44.484;11.240;2022-07-06T00:19:49;25.30;99.90
18339;DHT22;9295;44.484;11.240;2022-07-06T00:22:17;25.40;99.90
18339;DHT22;9295;44.484;11.240;2022-07-06T00:24:46;25.40;99.90
18339;DHT22;9295;44.484;11.240;2022-07-06T00:27:14;25.50;99.90
18339;DHT22;9295;44.484;11.240;2022-07-06T00:29:43;25.60;99.90
18339;DHT22;9295;44.484;11.240;2022-07-06T00:32:11;25.60;99.90
18339;DHT22;9295;44.484;11.240;2022-07-06T00:34:41;25.50;99.90
18339;DHT22;9295;44.484;11.240;2022-07-06T00:37:11;25.50;99.90
18339;DHT22;9295;44.484;11.240;2022-07-06T00:39:42;25.50;99.90
18339;DHT22;9295;44.484;11.240;2022-07-06T00:42:10;25.40;99.90
18339;DHT22;9295;44.484;11.240;2022-07-06T00:44:39;25.40;99.90
18339;DHT22;9295;44.484;11.240;2022-07-06T00:47:08;25.40;99.90
18339;DHT22;9295;44.484;11.240;2022-07-06T00:49:37;25.40;99.90
18339;DHT22;9295;44.484;11.240;2022-07-06T00:52:24;25.30;99.90
18339;DHT22;9295;44.484;11.240;2022-07-06T00:54:52;25.30;99.90
18339;DHT22;9295;44.484;11.240;2022-07-06T00:57:21;25.10;99.90
18339;DHT22;9295;44.484;11.240;2022-07-06T00:59:50;25.10;99.90
18339;DHT22;9295;44.484;11.240;2022-07-06T01:02:18;25.00;99.90
18339;DHT22;9295;44.484;11.240;2022-07-06T01:04:49;24.90;99.90
18339;DHT22;9295;44.484;11.240;2022-07-06T01:07:18;24.80;99.90
18339;DHT22;9295;44.484;11.240;2022-07-06T01:09:48;24.90;99.90
18339;DHT22;9295;44.484;11.240;2022-07-06T01:12:16;24.90;99.90
18339;DHT22;9295;44.484;11.240;2022-07-06T01:14:45;24.90;99.90
18339;DHT22;9295;44.484;11.240;2022-07-06T01:17:15;25.00;99.90
18339;DHT22;9295;44.484;11.240;2022-07-06T01:19:44;24.90;99.90
18339;DHT22;9295;44.484;11.240;2022-07-06T01:22:14;24.90;99.90
18339;DHT22;9295;44.484;11.240;2022-07-06T01:24:43;24.90;99.90
18339;DHT22;9295;44.484;11.240;2022-07-06T01:27:12;25.00;99.90
18339;DHT22;9295;44.484;11.240;2022-07-06T01:29:40;24.90;99.90
18339;DHT22;9295;44.484;11.240;2022-07-06T01:32:09;24.90;99.90
18339;DHT22;9295;44.484;11.240;2022-07-06T01:34:37;24.90;99.90
18339;DHT22;9295;44.484;11.240;2022-07-06T01:37:06;25.00;99.90
18339;DHT22;9295;44.484;11.240;2022-07-06T01:39:36;25.00;99.90
18339;DHT22;9295;44.484;11.240;2022-07-06T01:42:05;25.10;99.90
18339;DHT22;9295;44.484;11.240;2022-07-06T01:44:34;25.10;99.90
18339;DHT22;9295;44.484;11.240;2022-07-06T01:47:02;25.00;99.90
18339;DHT22;9295;44.484;11.240;2022-07-06T01:49:31;24.90;99.90
18339;DHT22;9295;44.484;11.240;2022-07-06T01:51:59;24.70;99.90
18339;DHT22;9295;44.484;11.240;2022-07-06T01:54:28;24.60;99.90
18339;DHT22;9295;44.484;11.240;2022-07-06T01:56:58;24.60;99.90
18339;DHT22;9295;44.484;11.240;2022-07-06T01:59:27;24.50;99.90
18339;DHT22;9295;44.484;11.240;2022-07-06T02:01:55;24.40;99.90
18339;DHT22;9295;44.484;11.240;2022-07-06T02:04:24;24.40;99.90
18339;DHT22;9295;44.484;11.240;2022-07-06T02:06:53;24.40;99.90
18339;DHT22;9295;44.484;11.240;2022-07-06T02:09:21;24.40;99.90
18339;DHT22;9295;44.484;11.240;2022-07-06T02:11:50;24.40;99.90
18339;DHT22;9295;44.484;11.240;2022-07-06T02:14:21;24.30;99.90
18339;DHT22;9295;44.484;11.240;2022-07-06T02:16:49;24.30;99.90
18339;DHT22;9295;44.484;11.240;2022-07-06T02:19:18;24.30;99.90
18339;DHT22;9295;44.484;11.240;2022-07-06T02:21:46;24.40;99.90
18339;DHT22;9295;44.484;11.240;2022-07-06T02:24:15;24.30;99.90
18339;DHT22;9295;44.484;11.240;2022-07-06T02:26:44;24.20;99.90
18339;DHT22;9295;44.484;11.240;2022-07-06T02:29:12;24.20;99.90
18339;DHT22;9295;44.484;11.240;2022-07-06T02:31:43;24.20;99.90
18339;DHT22;9295;44.484;11.240;2022-07-06T02:34:12;24.20;99.90
18339;DHT22;9295;44.484;11.240;2022-07-06T02:36:40;24.20;99.90
18339;DHT22;9295;44.484;11.240;2022-07-06T02:39:09;24.10;99.90
18339;DHT22;9295;44.484;11.240;2022-07-06T02:41:40;24.10;99.90
18339;DHT22;9295;44.484;11.240;2022-07-06T02:44:08;24.00;99.90
18339;DHT22;9295;44.484;11.240;2022-07-06T02:46:39;24.10;99.90
18339;DHT22;9295;44.484;11.240;2022-07-06T02:49:09;24.10;99.90
18339;DHT22;9295;44.484;11.240;2022-07-06T02:51:38;24.10;99.90
18339;DHT22;9295;44.484;11.240;2022-07-06T02:54:06;24.20;99.90
18339;DHT22;9295;44.484;11.240;2022-07-06T02:56:35;24.20;99.90
18339;DHT22;9295;44.484;11.240;2022-07-06T02:59:04;24.20;99.90
18339;DHT22;9295;44.484;11.240;2022-07-06T03:01:40;24.20;99.90
18339;DHT22;9295;44.484;11.240;2022-07-06T03:04:09;24.10;99.90
18339;DHT22;9295;44.484;11.240;2022-07-06T03:06:38;24.10;99.90
18339;DHT22;9295;44.484;11.240;2022-07-06T03:09:06;24.20;99.90
18339;DHT22;9295;44.484;11.240;2022-07-06T03:11:36;24.20;99.90
18339;DHT22;9295;44.484;11.240;2022-07-06T03:14:05;24.20;99.90
18339;DHT22;9295;44.484;11.240;2022-07-06T03:16:36;24.20;99.90
18339;DHT22;9295;44.484;11.240;2022-07-06T03:19:05;24.20;99.90
18339;DHT22;9295;44.484;11.240;2022-07-06T03:21:35;24.10;99.90
18339;DHT22;9295;44.484;11.240;2022-07-06T03:24:04;24.10;99.90
18339;DHT22;9295;44.484;11.240;2022-07-06T03:26:33;24.10;99.90
18339;DHT22;9295;44.484;11.240;2022-07-06T03:29:01;24.10;99.90
18339;DHT22;9295;44.484;11.240;2022-07-06T03:31:30;24.10;99.90
18339;DHT22;9295;44.484;11.240;2022-07-06T03:33:59;24.10;99.90
18339;DHT22;9295;44.484;11.240;2022-07-06T03:36:29;24.10;99.90
18339;DHT22;9295;44.484;11.240;2022-07-06T03:39:06;24.10;99.90
18339;DHT22;9295;44.484;11.240;2022-07-06T03:41:37;24.10;99.90
18339;DHT22;9295;44.484;11.240;2022-07-06T03:44:07;24.10;99.90
18339;DHT22;9295;44.484;11.240;2022-07-06T03:46:36;24.00;99.90
18339;DHT22;9295;44.484;11.240;2022-07-06T03:49:04;23.90;99.90
18339;DHT22;9295;44.484;11.240;2022-07-06T03:51:34;23.80;99.90
18339;DHT22;9295;44.484;11.240;2022-07-06T03:54:03;23.80;99.90
18339;DHT22;9295;44.484;11.240;2022-07-06T03:56:33;23.90;99.90
18339;DHT22;9295;44.484;11.240;2022-07-06T03:59:10;24.00;99.90
18339;DHT22;9295;44.484;11.240;2022-07-06T04:01:38;24.00;99.90
18339;DHT22;9295;44.484;11.240;2022-07-06T04:04:10;24.00;99.90
18339;DHT22;9295;44.484;11.240;2022-07-06T04:06:42;24.10;99.90
18339;DHT22;9295;44.484;11.240;2022-07-06T04:09:11;24.20;99.90
18339;DHT22;9295;44.484;11.240;2022-07-06T04:11:41;24.10;99.90
18339;DHT22;9295;44.484;11.240;2022-07-06T04:14:10;24.00;99.90
18339;DHT22;9295;44.484;11.240;2022-07-06T04:16:39;24.00;99.90
18339;DHT22;9295;44.484;11.240;2022-07-06T04:19:08;24.00;99.90
18339;DHT22;9295;44.484;11.240;2022-07-06T04:21:37;24.10;99.90
18339;DHT22;9295;44.484;11.240;2022-07-06T04:24:06;24.20;99.90
18339;DHT22;9295;44.484;11.240;2022-07-06T04:26:36;24.20;99.90
18339;DHT22;9295;44.484;11.240;2022-07-06T04:29:07;24.20;99.90
18339;DHT22;9295;44.484;11.240;2022-07-06T04:31:37;24.20;99.90
18339;DHT22;9295;44.484;11.240;2022-07-06T04:34:06;24.30;99.90
18339;DHT22;9295;44.484;11.240;2022-07-06T04:36:34;24.50;99.90
18339;DHT22;9295;44.484;11.240;2022-07-06T04:39:03;24.50;99.90
18339;DHT22;9295;44.484;11.240;2022-07-06T04:41:31;24.60;99.90
18339;DHT22;9295;44.484;11.240;2022-07-06T04:44:01;24.60;99.90
18339;DHT22;9295;44.484;11.240;2022-07-06T04:46:31;24.60;99.90
18339;DHT22;9295;44.484;11.240;2022-07-06T04:48:59;24.70;99.90
18339;DHT22;9295;44.484;11.240;2022-07-06T04:51:30;24.90;99.90
18339;DHT22;9295;44.484;11.240;2022-07-06T04:53:59;25.10;99.90
18339;DHT22;9295;44.484;11.240;2022-07-06T04:56:28;25.20;99.90
18339;DHT22;9295;44.484;11.240;2022-07-06T04:58:57;25.40;99.90
18339;DHT22;9295;44.484;11.240;2022-07-06T05:01:25;25.50;99.90
18339;DHT22;9295;44.484;11.240;2022-07-06T05:03:55;25.50;99.90
18339;DHT22;9295;44.484;11.240;2022-07-06T05:06:25;25.60;99.90
18339;DHT22;9295;44.484;11.240;2022-07-06T05:08:54;25.70;99.90
18339;DHT22;9295;44.484;11.240;2022-07-06T05:11:24;25.80;99.90
18339;DHT22;9295;44.484;11.240;2022-07-06T05:13:53;25.80;99.90
18339;DHT22;9295;44.484;11.240;2022-07-06T05:16:22;25.80;99.90
18339;DHT22;9295;44.484;11.240;2022-07-06T05:18:51;25.70;99.90
18339;DHT22;9295;44.484;11.240;2022-07-06T05:21:21;25.60;99.90
18339;DHT22;9295;44.484;11.240;2022-07-06T05:23:50;25.60;99.90
18339;DHT22;9295;44.484;11.240;2022-07-06T05:26:18;25.60;99.90
18339;DHT22;9295;44.484;11.240;2022-07-06T05:28:48;25.70;99.90
18339;DHT22;9295;44.484;11.240;2022-07-06T05:31:19;25.70;99.90
18339;DHT22;9295;44.484;11.240;2022-07-06T05:33:48;25.80;99.90
18339;DHT22;9295;44.484;11.240;2022-07-06T05:36:16;25.90;99.90
18339;DHT22;9295;44.484;11.240;2022-07-06T05:38:47;26.00;99.90
18339;DHT22;9295;44.484;11.240;2022-07-06T05:41:16;26.00;99.90
18339;DHT22;9295;44.484;11.240;2022-07-06T05:43:44;26.00;99.90
18339;DHT22;9295;44.484;11.240;2022-07-06T05:46:13;26.10;99.90
18339;DHT22;9295;44.484;11.240;2022-07-06T05:48:41;26.10;99.90
18339;DHT22;9295;44.484;11.240;2022-07-06T05:51:28;26.10;99.90
18339;DHT22;9295;44.484;11.240;2022-07-06T05:53:58;26.00;99.90
18339;DHT22;9295;44.484;11.240;2022-07-06T05:56:27;26.00;99.90
18339;DHT22;9295;44.484;11.240;2022-07-06T05:58:55;26.10;99.90
18339;DHT22;9295;44.484;11.240;2022-07-06T06:01:24;26.40;99.90
18339;DHT22;9295;44.484;11.240;2022-07-06T06:04:04;26.70;99.90
18339;DHT22;9295;44.484;11.240;2022-07-06T06:06:33;26.80;99.90
18339;DHT22;9295;44.484;11.240;2022-07-06T06:09:03;26.90;99.90
18339;DHT22;9295;44.484;11.240;2022-07-06T06:11:32;26.80;99.90
18339;DHT22;9295;44.484;11.240;2022-07-06T06:14:00;26.50;99.90
18339;DHT22;9295;44.484;11.240;2022-07-06T06:16:29;26.50;99.90
18339;DHT22;9295;44.484;11.240;2022-07-06T06:18:58;26.70;99.90
18339;DHT22;9295;44.484;11.240;2022-07-06T06:21:27;27.00;99.90
18339;DHT22;9295;44.484;11.240;2022-07-06T06:23:55;27.30;99.90
18339;DHT22;9295;44.484;11.240;2022-07-06T06:26:25;27.60;99.90
18339;DHT22;9295;44.484;11.240;2022-07-06T06:28:54;27.50;99.90
18339;DHT22;9295;44.484;11.240;2022-07-06T06:31:22;27.40;99.90
18339;DHT22;9295;44.484;11.240;2022-07-06T06:33:51;27.60;99.90
18339;DHT22;9295;44.484;11.240;2022-07-06T06:36:20;27.60;99.90
18339;DHT22;9295;44.484;11.240;2022-07-06T06:38:48;27.80;99.90
18339;DHT22;9295;44.484;11.240;2022-07-06T06:41:22;28.10;99.90
18339;DHT22;9295;44.484;11.240;2022-07-06T06:43:52;28.40;99.90
18339;DHT22;9295;44.484;11.240;2022-07-06T06:46:27;27.90;99.90
18339;DHT22;9295;44.484;11.240;2022-07-06T06:48:56;27.80;99.90
18339;DHT22;9295;44.484;11.240;2022-07-06T06:51:24;27.90;99.90
18339;DHT22;9295;44.484;11.240;2022-07-06T06:53:53;27.80;99.90
18339;DHT22;9295;44.484;11.240;2022-07-06T06:56:21;28.00;99.90
18339;DHT22;9295;44.484;11.240;2022-07-06T06:58:51;28.30;99.90
18339;DHT22;9295;44.484;11.240;2022-07-06T07:01:40;28.20;99.90
18339;DHT22;9295;44.484;11.240;2022-07-06T07:04:09;27.70;99.90
18339;DHT22;9295;44.484;11.240;2022-07-06T07:06:39;27.40;99.90
18339;DHT22;9295;44.484;11.240;2022-07-06T07:09:08;27.30;99.90
18339;DHT22;9295;44.484;11.240;2022-07-06T07:11:36;27.50;99.90
18339;DHT22;9295;44.484;11.240;2022-07-06T07:14:06;27.70;99.90
18339;DHT22;9295;44.484;11.240;2022-07-06T07:16:34;27.90;99.90
18339;DHT22;9295;44.484;11.240;2022-07-06T07:19:03;28.10;99.90
18339;DHT22;9295;44.484;11.240;2022-07-06T07:21:32;28.10;99.90
18339;DHT22;9295;44.484;11.240;2022-07-06T07:24:00;27.90;99.90
18339;DHT22;9295;44.484;11.240;2022-07-06T07:26:36;27.70;99.90
18339;DHT22;9295;44.484;11.240;2022-07-06T07:29:06;27.80;99.90
18339;DHT22;9295;44.484;11.240;2022-07-06T07:31:35;28.20;99.90
18339;DHT22;9295;44.484;11.240;2022-07-06T07:34:03;28.10;99.90
18339;DHT22;9295;44.484;11.240;2022-07-06T07:36:32;28.40;99.90
18339;DHT22;9295;44.484;11.240;2022-07-06T07:39:01;28.60;99.90
18339;DHT22;9295;44.484;11.240;2022-07-06T07:41:30;29.00;99.90
18339;DHT22;9295;44.484;11.240;2022-07-06T07:43:59;29.40;99.90
18339;DHT22;9295;44.484;11.240;2022-07-06T07:46:29;29.60;99.90
18339;DHT22;9295;44.484;11.240;2022-07-06T07:48:57;29.70;99.90
18339;DHT22;9295;44.484;11.240;2022-07-06T07:51:29;29.70;99.90
18339;DHT22;9295;44.484;11.240;2022-07-06T07:53:57;29.70;99.90
18339;DHT22;9295;44.484;11.240;2022-07-06T07:56:26;29.70;99.90
18339;DHT22;9295;44.484;11.240;2022-07-06T07:58:54;29.80;99.90
18339;DHT22;9295;44.484;11.240;2022-07-06T08:01:29;29.80;99.90
18339;DHT22;9295;44.484;11.240;2022-07-06T08:03:58;29.30;99.90
18339;DHT22;9295;44.484;11.240;2022-07-06T08:06:26;29.00;99.90
18339;DHT22;9295;44.484;11.240;2022-07-06T08:08:55;28.90;99.90
18339;DHT22;9295;44.484;11.240;2022-07-06T08:11:23;29.20;99.90
18339;DHT22;9295;44.484;11.240;2022-07-06T08:13:52;29.20;99.90
18339;DHT22;9295;44.484;11.240;2022-07-06T08:16:20;29.50;99.90
18339;DHT22;9295;44.484;11.240;2022-07-06T08:18:50;29.80;99.90
18339;DHT22;9295;44.484;11.240;2022-07-06T08:21:19;30.20;99.90
18339;DHT22;9295;44.484;11.240;2022-07-06T08:23:52;30.40;99.90
18339;DHT22;9295;44.484;11.240;2022-07-06T08:26:21;30.60;99.90
18339;DHT22;9295;44.484;11.240;2022-07-06T08:28:50;30.40;99.90
18339;DHT22;9295;44.484;11.240;2022-07-06T08:31:19;30.40;99.90
18339;DHT22;9295;44.484;11.240;2022-07-06T08:34:08;30.40;99.90
18339;DHT22;9295;44.484;11.240;2022-07-06T08:36:37;30.30;99.90
18339;DHT22;9295;44.484;11.240;2022-07-06T08:39:06;29.80;99.90
18339;DHT22;9295;44.484;11.240;2022-07-06T08:41:36;29.80;99.90
18339;DHT22;9295;44.484;11.240;2022-07-06T08:44:07;29.90;99.90
18339;DHT22;9295;44.484;11.240;2022-07-06T08:46:38;29.90;99.90
18339;DHT22;9295;44.484;11.240;2022-07-06T08:49:12;29.70;99.90
18339;DHT22;9295;44.484;11.240;2022-07-06T08:51:41;29.60;99.90
18339;DHT22;9295;44.484;11.240;2022-07-06T08:54:11;29.40;99.90
18339;DHT22;9295;44.484;11.240;2022-07-06T08:56:40;29.30;99.90
18339;DHT22;9295;44.484;11.240;2022-07-06T08:59:15;29.20;99.90
18339;DHT22;9295;44.484;11.240;2022-07-06T09:01:44;29.20;99.90
18339;DHT22;9295;44.484;11.240;2022-07-06T09:04:17;29.30;99.90
18339;DHT22;9295;44.484;11.240;2022-07-06T09:06:46;29.40;99.90
18339;DHT22;9295;44.484;11.240;2022-07-06T09:09:19;29.50;99.90
18339;DHT22;9295;44.484;11.240;2022-07-06T09:11:49;29.70;99.90
18339;DHT22;9295;44.484;11.240;2022-07-06T09:14:18;29.60;99.90
18339;DHT22;9295;44.484;11.240;2022-07-06T09:16:51;29.60;99.90
18339;DHT22;9295;44.484;11.240;2022-07-06T09:19:21;29.60;99.90
18339;DHT22;9295;44.484;11.240;2022-07-06T09:21:50;29.60;99.90
18339;DHT22;9295;44.484;11.240;2022-07-06T09:24:19;29.60;99.90
18339;DHT22;9295;44.484;11.240;2022-07-06T09:26:48;29.90;99.90
18339;DHT22;9295;44.484;11.240;2022-07-06T09:29:16;30.20;99.90
18339;DHT22;9295;44.484;11.240;2022-07-06T09:31:56;30.20;99.90
18339;DHT22;9295;44.484;11.240;2022-07-06T09:34:40;29.90;99.90
18339;DHT22;9295;44.484;11.240;2022-07-06T09:37:10;29.90;99.90
18339;DHT22;9295;44.484;11.240;2022-07-06T09:39:39;29.90;99.90
18339;DHT22;9295;44.484;11.240;2022-07-06T09:42:08;29.80;99.90
18339;DHT22;9295;44.484;11.240;2022-07-06T09:44:38;29.90;99.90
18339;DHT22;9295;44.484;11.240;2022-07-06T09:47:08;30.20;99.90
18339;DHT22;9295;44.484;11.240;2022-07-06T09:49:39;30.30;99.90
18339;DHT22;9295;44.484;11.240;2022-07-06T09:52:09;30.20;99.90
18339;DHT22;9295;44.484;11.240;2022-07-06T09:54:39;30.40;99.90
18339;DHT22;9295;44.484;11.240;2022-07-06T09:57:07;30.50;99.90
18339;DHT22;9295;44.484;11.240;2022-07-06T09:59:37;30.50;99.90
18339;DHT22;9295;44.484;11.240;2022-07-06T10:02:07;30.00;99.90
18339;DHT22;9295;44.484;11.240;2022-07-06T10:04:37;29.60;99.90
18339;DHT22;9295;44.484;11.240;2022-07-06T10:07:06;29.80;99.90
18339;DHT22;9295;44.484;11.240;2022-07-06T10:09:37;29.80;99.90
18339;DHT22;9295;44.484;11.240;2022-07-06T10:12:09;29.60;99.90
18339;DHT22;9295;44.484;11.240;2022-07-06T10:14:40;29.50;99.90
18339;DHT22;9295;44.484;11.240;2022-07-06T10:17:17;29.60;99.90
18339;DHT22;9295;44.484;11.240;2022-07-06T10:19:48;29.80;99.90
18339;DHT22;9295;44.484;11.240;2022-07-06T10:22:19;29.60;99.90
18339;DHT22;9295;44.484;11.240;2022-07-06T10:24:49;29.90;99.90
18339;DHT22;9295;44.484;11.240;2022-07-06T10:27:18;30.20;99.90
18339;DHT22;9295;44.484;11.240;2022-07-06T10:29:47;30.30;99.90
18339;DHT22;9295;44.484;11.240;2022-07-06T10:32:18;30.50;99.90
18339;DHT22;9295;44.484;11.240;2022-07-06T10:34:49;30.50;99.90
18339;DHT22;9295;44.484;11.240;2022-07-06T10:37:25;30.70;99.90
18339;DHT22;9295;44.484;11.240;2022-07-06T10:39:54;30.40;99.90
18339;DHT22;9295;44.484;11.240;2022-07-06T10:42:41;30.50;99.90
18339;DHT22;9295;44.484;11.240;2022-07-06T10:45:11;30.60;99.90
18339;DHT22;9295;44.484;11.240;2022-07-06T10:47:41;30.50;99.90
18339;DHT22;9295;44.484;11.240;2022-07-06T10:50:11;30.70;99.90
18339;DHT22;9295;44.484;11.240;2022-07-06T10:52:58;30.90;99.90
18339;DHT22;9295;44.484;11.240;2022-07-06T10:55:31;31.20;99.90
18339;DHT22;9295;44.484;11.240;2022-07-06T10:58:00;31.30;99.90
18339;DHT22;9295;44.484;11.240;2022-07-06T11:00:48;31.50;99.90
18339;DHT22;9295;44.484;11.240;2022-07-06T11:03:34;31.80;99.90
18339;DHT22;9295;44.484;11.240;2022-07-06T11:06:06;31.60;99.90
18339;DHT22;9295;44.484;11.240;2022-07-06T11:08:54;31.40;99.90
18339;DHT22;9295;44.484;11.240;2022-07-06T11:11:25;31.40;99.90
18339;DHT22;9295;44.484;11.240;2022-07-06T11:13:56;31.80;99.90
18339;DHT22;9295;44.484;11.240;2022-07-06T11:16:26;32.10;99.90
18339;DHT22;9295;44.484;11.240;2022-07-06T11:19:07;32.10;99.90
18339;DHT22;9295;44.484;11.240;2022-07-06T11:21:41;32.20;99.90
18339;DHT22;9295;44.484;11.240;2022-07-06T11:24:13;32.30;99.90
18339;DHT22;9295;44.484;11.240;2022-07-06T11:26:44;32.10;99.90
18339;DHT22;9295;44.484;11.240;2022-07-06T11:29:14;31.80;99.90
18339;DHT22;9295;44.484;11.240;2022-07-06T11:31:45;31.80;99.90
18339;DHT22;9295;44.484;11.240;2022-07-06T11:34:18;31.80;99.90
18339;DHT22;9295;44.484;11.240;2022-07-06T11:36:49;31.80;99.90
18339;DHT22;9295;44.484;11.240;2022-07-06T11:39:23;31.90;99.90
18339;DHT22;9295;44.484;11.240;2022-07-06T11:41:54;31.90;99.90
18339;DHT22;9295;44.484;11.240;2022-07-06T11:44:23;32.10;99.90
18339;DHT22;9295;44.484;11.240;2022-07-06T11:46:51;32.40;99.90
18339;DHT22;9295;44.484;11.240;2022-07-06T11:49:22;32.40;99.90
18339;DHT22;9295;44.484;11.240;2022-07-06T11:51:52;32.40;99.80
18339;DHT22;9295;44.484;11.240;2022-07-06T11:54:22;32.30;99.90
18339;DHT22;9295;44.484;11.240;2022-07-06T11:56:52;32.20;99.90
18339;DHT22;9295;44.484;11.240;2022-07-06T11:59:22;32.10;99.80
18339;DHT22;9295;44.484;11.240;2022-07-06T12:01:59;32.10;99.90
18339;DHT22;9295;44.484;11.240;2022-07-06T12:04:28;32.20;99.80
18339;DHT22;9295;44.484;11.240;2022-07-06T12:07:01;32.20;99.90
18339;DHT22;9295;44.484;11.240;2022-07-06T12:09:31;32.20;99.70
18339;DHT22;9295;44.484;11.240;2022-07-06T12:12:00;32.30;99.60
18339;DHT22;9295;44.484;11.240;2022-07-06T12:14:31;32.40;99.50
18339;DHT22;9295;44.484;11.240;2022-07-06T12:17:03;32.40;99.50
18339;DHT22;9295;44.484;11.240;2022-07-06T12:19:33;32.40;99.50
18339;DHT22;9295;44.484;11.240;2022-07-06T12:22:03;32.40;99.10
18339;DHT22;9295;44.484;11.240;2022-07-06T12:24:33;32.30;98.70
18339;DHT22;9295;44.484;11.240;2022-07-06T12:27:10;32.20;98.70
18339;DHT22;9295;44.484;11.240;2022-07-06T12:29:39;32.20;99.00
18339;DHT22;9295;44.484;11.240;2022-07-06T12:32:14;32.10;99.10
18339;DHT22;9295;44.484;11.240;2022-07-06T12:34:43;32.30;99.00
18339;DHT22;9295;44.484;11.240;2022-07-06T12:37:13;32.30;98.20
18339;DHT22;9295;44.484;11.240;2022-07-06T12:39:43;32.40;98.40
18339;DHT22;9295;44.484;11.240;2022-07-06T12:42:14;32.30;97.60
18339;DHT22;9295;44.484;11.240;2022-07-06T12:44:48;32.30;97.70
18339;DHT22;9295;44.484;11.240;2022-07-06T12:47:18;32.30;97.70
18339;DHT22;9295;44.484;11.240;2022-07-06T12:49:49;32.10;97.30
18339;DHT22;9295;44.484;11.240;2022-07-06T12:52:19;32.10;97.60
18339;DHT22;9295;44.484;11.240;2022-07-06T12:54:48;32.00;97.40
18339;DHT22;9295;44.484;11.240;2022-07-06T12:57:18;31.80;97.40
18339;DHT22;9295;44.484;11.240;2022-07-06T12:59:48;31.90;97.80
18339;DHT22;9295;44.484;11.240;2022-07-06T13:02:25;32.10;97.80
18339;DHT22;9295;44.484;11.240;2022-07-06T13:05:15;32.20;97.90
18339;DHT22;9295;44.484;11.240;2022-07-06T13:07:47;32.20;97.60
18339;DHT22;9295;44.484;11.240;2022-07-06T13:10:16;32.20;97.90
18339;DHT22;9295;44.484;11.240;2022-07-06T13:12:44;32.20;97.80
18339;DHT22;9295;44.484;11.240;2022-07-06T13:15:13;32.20;97.30
18339;DHT22;9295;44.484;11.240;2022-07-06T13:17:42;32.10;97.50
18339;DHT22;9295;44.484;11.240;2022-07-06T13:20:12;32.20;97.60
18339;DHT22;9295;44.484;11.240;2022-07-06T13:22:41;32.30;97.40
18339;DHT22;9295;44.484;11.240;2022-07-06T13:25:11;32.40;97.40
18339;DHT22;9295;44.484;11.240;2022-07-06T13:27:40;32.40;97.00
18339;DHT22;9295;44.484;11.240;2022-07-06T13:30:10;32.30;96.70
18339;DHT22;9295;44.484;11.240;2022-07-06T13:32:38;32.30;96.70
18339;DHT22;9295;44.484;11.240;2022-07-06T13:35:08;32.10;96.80
18339;DHT22;9295;44.484;11.240;2022-07-06T13:37:37;32.10;96.80
18339;DHT22;9295;44.484;11.240;2022-07-06T13:40:06;32.20;96.70
18339;DHT22;9295;44.484;11.240;2022-07-06T13:42:36;32.30;96.90
18339;DHT22;9295;44.484;11.240;2022-07-06T13:45:06;32.40;97.00
18339;DHT22;9295;44.484;11.240;2022-07-06T13:47:34;32.40;96.90
18339;DHT22;9295;44.484;11.240;2022-07-06T13:50:03;32.40;96.50
18339;DHT22;9295;44.484;11.240;2022-07-06T13:52:32;32.30;96.40
18339;DHT22;9295;44.484;11.240;2022-07-06T13:55:00;32.30;96.60
18339;DHT22;9295;44.484;11.240;2022-07-06T13:57:29;32.20;96.90
18339;DHT22;9295;44.484;11.240;2022-07-06T13:59:59;32.10;96.40
18339;DHT22;9295;44.484;11.240;2022-07-06T14:02:27;32.10;96.30
18339;DHT22;9295;44.484;11.240;2022-07-06T14:04:56;32.00;95.90
18339;DHT22;9295;44.484;11.240;2022-07-06T14:07:24;31.90;96.20
18339;DHT22;9295;44.484;11.240;2022-07-06T14:09:53;31.80;96.00
18339;DHT22;9295;44.484;11.240;2022-07-06T14:12:22;31.80;95.80
18339;DHT22;9295;44.484;11.240;2022-07-06T14:14:51;31.90;95.70
18339;DHT22;9295;44.484;11.240;2022-07-06T14:17:21;31.70;95.10
18339;DHT22;9295;44.484;11.240;2022-07-06T14:19:50;31.60;95.00
18339;DHT22;9295;44.484;11.240;2022-07-06T14:22:19;31.50;94.90
18339;DHT22;9295;44.484;11.240;2022-07-06T14:24:47;31.40;95.00
18339;DHT22;9295;44.484;11.240;2022-07-06T14:27:16;31.40;94.90
18339;DHT22;9295;44.484;11.240;2022-07-06T14:29:44;31.30;94.50
18339;DHT22;9295;44.484;11.240;2022-07-06T14:32:13;31.30;94.50
18339;DHT22;9295;44.484;11.240;2022-07-06T14:34:43;31.30;94.30
18339;DHT22;9295;44.484;11.240;2022-07-06T14:37:11;31.30;94.00
18339;DHT22;9295;44.484;11.240;2022-07-06T14:39:46;31.40;94.00
18339;DHT22;9295;44.484;11.240;2022-07-06T14:42:16;31.40;94.00
18339;DHT22;9295;44.484;11.240;2022-07-06T14:44:44;31.50;94.00
18339;DHT22;9295;44.484;11.240;2022-07-06T14:47:13;31.60;93.80
18339;DHT22;9295;44.484;11.240;2022-07-06T14:49:43;31.70;93.30
18339;DHT22;9295;44.484;11.240;2022-07-06T14:52:13;31.60;92.80
18339;DHT22;9295;44.484;11.240;2022-07-06T14:54:42;31.50;92.80
18339;DHT22;9295;44.484;11.240;2022-07-06T14:57:11;31.40;92.90
18339;DHT22;9295;44.484;11.240;2022-07-06T14:59:40;31.40;92.60
18339;DHT22;9295;44.484;11.240;2022-07-06T15:02:08;31.40;92.70
18339;DHT22;9295;44.484;11.240;2022-07-06T15:04:36;31.30;92.60
18339;DHT22;9295;44.484;11.240;2022-07-06T15:07:06;31.30;92.50
18339;DHT22;9295;44.484;11.240;2022-07-06T15:09:35;31.30;91.90
18339;DHT22;9295;44.484;11.240;2022-07-06T15:12:04;31.20;91.60
18339;DHT22;9295;44.484;11.240;2022-07-06T15:14:33;31.10;92.00
18339;DHT22;9295;44.484;11.240;2022-07-06T15:17:02;31.00;92.00
18339;DHT22;9295;44.484;11.240;2022-07-06T15:19:31;31.00;92.10
18339;DHT22;9295;44.484;11.240;2022-07-06T15:21:59;31.00;92.00
18339;DHT22;9295;44.484;11.240;2022-07-06T15:24:29;31.00;92.20
18339;DHT22;9295;44.484;11.240;2022-07-06T15:26:58;31.00;92.20
18339;DHT22;9295;44.484;11.240;2022-07-06T15:29:26;31.10;92.40
18339;DHT22;9295;44.484;11.240;2022-07-06T15:31:55;31.00;91.60
18339;DHT22;9295;44.484;11.240;2022-07-06T15:34:23;31.00;91.70
18339;DHT22;9295;44.484;11.240;2022-07-06T15:36:52;31.00;91.70
18339;DHT22;9295;44.484;11.240;2022-07-06T15:39:22;31.00;91.80
18339;DHT22;9295;44.484;11.240;2022-07-06T15:41:52;31.10;91.80
18339;DHT22;9295;44.484;11.240;2022-07-06T15:44:20;31.00;91.10
18339;DHT22;9295;44.484;11.240;2022-07-06T15:46:49;30.90;91.30
18339;DHT22;9295;44.484;11.240;2022-07-06T15:49:18;30.80;91.30